sensor_id;sensor_type;location;lat;lon;timestamp;P1;durP1;ratioP1;P2;durP2;ratioP2
64252;SDS011;50592;52.958;-7.470;2024-02-28T00:01:56;22.17;;;5.28;;
64252;SDS011;50592;52.958;-7.470;2024-02-28T00:04:21;27.00;;;4.95;;
64252;SDS011;50592;52.958;-7.470;2024-02-28T00:06:47;37.45;;;5.00;;
64252;SDS011;50592;52.958;-7.470;2024-02-28T00:09:13;25.13;;;5.03;;
64252;SDS011;50592;52.958;-7.470;2024-02-28T00:11:46;31.33;;;4.45;;
64252;SDS011;50592;52.958;-7.470;2024-02-28T00:14:12;28.85;;;4.07;;
64252;SDS011;50592;52.958;-7.470;2024-02-28T00:16:42;26.33;;;4.85;;
64252;SDS011;50592;52.958;-7.470;2024-02-28T00:19:09;23.75;;;5.13;;
64252;SDS011;50592;52.958;-7.470;2024-02-28T00:21:36;29.88;;;5.15;;
64252;SDS011;50592;52.958;-7.470;2024-02-28T00:24:02;24.52;;;5.63;;
64252;SDS011;50592;52.958;-7.470;2024-02-28T00:26:28;26.70;;;4.53;;
64252;SDS011;50592;52.958;-7.470;2024-02-28T00:28:54;28.15;;;5.47;;
64252;SDS011;50592;52.958;-7.470;2024-02-28T00:31:20;37.20;;;5.55;;
64252;SDS011;50592;52.958;-7.470;2024-02-28T00:33:47;24.38;;;4.97;;
64252;SDS011;50592;52.958;-7.470;2024-02-28T00:36:13;26.25;;;4.68;;
64252;SDS011;50592;52.958;-7.470;2024-02-28T00:38:40;27.55;;;7.32;;
64252;SDS011;50592;52.958;-7.470;2024-02-28T00:41:07;33.95;;;5.68;;
64252;SDS011;50592;52.958;-7.470;2024-02-28T00:43:32;31.58;;;5.38;;
64252;SDS011;50592;52.958;-7.470;2024-02-28T00:45:58;31.77;;;5.30;;
64252;SDS011;50592;52.958;-7.470;2024-02-28T00:48:24;24.45;;;5.95;;
64252;SDS011;50592;52.958;-7.470;2024-02-28T00:50:50;26.08;;;6.68;;
64252;SDS011;50592;52.958;-7.470;2024-02-28T00:53:17;32.50;;;7.07;;
64252;SDS011;50592;52.958;-7.470;2024-02-28T00:55:43;37.47;;;7.75;;
64252;SDS011;50592;52.958;-7.470;2024-02-28T00:58:09;25.73;;;5.68;;
64252;SDS011;50592;52.958;-7.470;2024-02-28T01:00:36;27.63;;;5.65;;
64252;SDS011;50592;52.958;-7.470;2024-02-28T01:03:01;26.33;;;6.35;;
64252;SDS011;50592;52.958;-7.470;2024-02-28T01:05:29;32.30;;;6.18;;
64252;SDS011;50592;52.958;-7.470;2024-02-28T01:07:55;23.42;;;6.03;;
64252;SDS011;50592;52.958;-7.470;2024-02-28T01:10:21;26.40;;;6.10;;
64252;SDS011;50592;52.958;-7.470;2024-02-28T01:12:48;20.13;;;5.57;;
64252;SDS011;50592;52.958;-7.470;2024-02-28T01:15:14;24.83;;;6.43;;
64252;SDS011;50592;52.958;-7.470;2024-02-28T01:17:40;22.92;;;5.60;;
64252;SDS011;50592;52.958;-7.470;2024-02-28T01:20:06;25.92;;;5.50;;
64252;SDS011;50592;52.958;-7.470;2024-02-28T01:22:35;41.33;;;8.25;;
64252;SDS011;50592;52.958;-7.470;2024-02-28T01:25:01;20.90;;;5.50;;
64252;SDS011;50592;52.958;-7.470;2024-02-28T01:27:29;31.20;;;6.55;;
64252;SDS011;50592;52.958;-7.470;2024-02-28T01:29:54;34.05;;;7.00;;
64252;SDS011;50592;52.958;-7.470;2024-02-28T01:32:20;25.25;;;6.13;;
64252;SDS011;50592;52.958;-7.470;2024-02-28T01:34:46;25.42;;;6.15;;
64252;SDS011;50592;52.958;-7.470;2024-02-28T01:37:12;32.15;;;5.82;;
64252;SDS011;50592;52.958;-7.470;2024-02-28T01:39:38;24.80;;;5.60;;
64252;SDS011;50592;52.958;-7.470;2024-02-28T01:42:04;28.38;;;5.05;;
64252;SDS011;50592;52.958;-7.470;2024-02-28T01:44:30;30.63;;;5.70;;
64252;SDS011;50592;52.958;-7.470;2024-02-28T01:46:56;30.55;;;8.35;;
64252;SDS011;50592;52.958;-7.470;2024-02-28T01:49:23;40.63;;;6.78;;
64252;SDS011;50592;52.958;-7.470;2024-02-28T01:51:50;33.25;;;6.43;;
64252;SDS011;50592;52.958;-7.470;2024-02-28T01:54:16;25.42;;;5.20;;
64252;SDS011;50592;52.958;-7.470;2024-02-28T01:56:43;30.20;;;6.70;;
64252;SDS011;50592;52.958;-7.470;2024-02-28T01:59:10;21.58;;;5.13;;
64252;SDS011;50592;52.958;-7.470;2024-02-28T02:01:36;33.92;;;5.88;;
64252;SDS011;50592;52.958;-7.470;2024-02-28T02:04:03;22.02;;;5.03;;
64252;SDS011;50592;52.958;-7.470;2024-02-28T02:06:30;33.72;;;5.90;;
64252;SDS011;50592;52.958;-7.470;2024-02-28T02:08:56;31.05;;;4.70;;
64252;SDS011;50592;52.958;-7.470;2024-02-28T02:11:22;25.75;;;4.38;;
64252;SDS011;50592;52.958;-7.470;2024-02-28T02:13:52;34.83;;;5.72;;
64252;SDS011;50592;52.958;-7.470;2024-02-28T02:16:19;26.83;;;5.97;;
64252;SDS011;50592;52.958;-7.470;2024-02-28T02:18:48;26.30;;;4.97;;
64252;SDS011;50592;52.958;-7.470;2024-02-28T02:21:15;28.98;;;6.03;;
64252;SDS011;50592;52.958;-7.470;2024-02-28T02:23:43;35.42;;;6.15;;
64252;SDS011;50592;52.958;-7.470;2024-02-28T02:26:09;25.60;;;5.15;;
64252;SDS011;50592;52.958;-7.470;2024-02-28T02:28:35;30.35;;;5.25;;
64252;SDS011;50592;52.958;-7.470;2024-02-28T02:31:00;33.40;;;4.82;;
64252;SDS011;50592;52.958;-7.470;2024-02-28T02:33:26;40.22;;;5.15;;
64252;SDS011;50592;52.958;-7.470;2024-02-28T02:35:55;33.88;;;5.28;;
64252;SDS011;50592;52.958;-7.470;2024-02-28T02:38:21;37.38;;;7.10;;
64252;SDS011;50592;52.958;-7.470;2024-02-28T02:40:50;38.92;;;5.00;;
64252;SDS011;50592;52.958;-7.470;2024-02-28T02:43:16;25.02;;;3.92;;
64252;SDS011;50592;52.958;-7.470;2024-02-28T02:45:43;23.80;;;4.80;;
64252;SDS011;50592;52.958;-7.470;2024-02-28T02:48:09;26.00;;;5.00;;
64252;SDS011;50592;52.958;-7.470;2024-02-28T02:50:35;26.98;;;4.35;;
64252;SDS011;50592;52.958;-7.470;2024-02-28T02:53:02;34.90;;;4.72;;
64252;SDS011;50592;52.958;-7.470;2024-02-28T02:55:28;29.60;;;4.25;;
64252;SDS011;50592;52.958;-7.470;2024-02-28T02:57:54;34.67;;;4.57;;
64252;SDS011;50592;52.958;-7.470;2024-02-28T03:00:20;26.95;;;3.83;;
64252;SDS011;50592;52.958;-7.470;2024-02-28T03:02:47;40.65;;;7.68;;
64252;SDS011;50592;52.958;-7.470;2024-02-28T03:05:12;29.20;;;6.35;;
64252;SDS011;50592;52.958;-7.470;2024-02-28T03:07:38;31.90;;;5.47;;
64252;SDS011;50592;52.958;-7.470;2024-02-28T03:10:04;29.23;;;5.07;;
64252;SDS011;50592;52.958;-7.470;2024-02-28T03:12:31;31.90;;;6.00;;
64252;SDS011;50592;52.958;-7.470;2024-02-28T03:14:57;31.95;;;5.35;;
64252;SDS011;50592;52.958;-7.470;2024-02-28T03:17:23;27.98;;;4.50;;
64252;SDS011;50592;52.958;-7.470;2024-02-28T03:19:49;23.17;;;4.30;;
64252;SDS011;50592;52.958;-7.470;2024-02-28T03:22:15;22.25;;;4.43;;
64252;SDS011;50592;52.958;-7.470;2024-02-28T03:24:41;28.80;;;4.90;;
64252;SDS011;50592;52.958;-7.470;2024-02-28T03:27:07;28.90;;;5.75;;
64252;SDS011;50592;52.958;-7.470;2024-02-28T03:29:33;20.67;;;4.78;;
64252;SDS011;50592;52.958;-7.470;2024-02-28T03:31:59;25.10;;;4.13;;
64252;SDS011;50592;52.958;-7.470;2024-02-28T03:34:25;30.45;;;5.15;;
64252;SDS011;50592;52.958;-7.470;2024-02-28T03:36:51;35.60;;;4.65;;
64252;SDS011;50592;52.958;-7.470;2024-02-28T03:39:17;28.08;;;5.32;;
64252;SDS011;50592;52.958;-7.470;2024-02-28T03:41:42;25.85;;;4.20;;
64252;SDS011;50592;52.958;-7.470;2024-02-28T03:44:08;25.83;;;4.90;;
64252;SDS011;50592;52.958;-7.470;2024-02-28T03:46:34;25.45;;;5.97;;
64252;SDS011;50592;52.958;-7.470;2024-02-28T03:49:00;32.50;;;6.55;;
64252;SDS011;50592;52.958;-7.470;2024-02-28T03:51:26;32.17;;;5.53;;
64252;SDS011;50592;52.958;-7.470;2024-02-28T03:53:51;37.42;;;5.07;;
64252;SDS011;50592;52.958;-7.470;2024-02-28T03:56:24;35.90;;;5.82;;
64252;SDS011;50592;52.958;-7.470;2024-02-28T03:58:50;32.28;;;5.07;;
64252;SDS011;50592;52.958;-7.470;2024-02-28T04:01:17;29.55;;;5.57;;
64252;SDS011;50592;52.958;-7.470;2024-02-28T04:03:43;31.08;;;5.43;;
64252;SDS011;50592;52.958;-7.470;2024-02-28T04:06:08;28.02;;;4.05;;
64252;SDS011;50592;52.958;-7.470;2024-02-28T04:08:34;31.63;;;4.72;;
64252;SDS011;50592;52.958;-7.470;2024-02-28T04:11:00;27.17;;;4.95;;
64252;SDS011;50592;52.958;-7.470;2024-02-28T04:13:26;26.80;;;5.80;;
64252;SDS011;50592;52.958;-7.470;2024-02-28T04:15:52;31.75;;;5.90;;
64252;SDS011;50592;52.958;-7.470;2024-02-28T04:18:18;28.75;;;5.13;;
64252;SDS011;50592;52.958;-7.470;2024-02-28T04:20:43;28.77;;;4.72;;
64252;SDS011;50592;52.958;-7.470;2024-02-28T04:23:09;29.65;;;4.32;;
64252;SDS011;50592;52.958;-7.470;2024-02-28T04:25:35;28.45;;;4.70;;
64252;SDS011;50592;52.958;-7.470;2024-02-28T04:28:02;29.00;;;5.43;;
64252;SDS011;50592;52.958;-7.470;2024-02-28T04:30:28;29.40;;;6.70;;
64252;SDS011;50592;52.958;-7.470;2024-02-28T04:32:54;24.42;;;5.05;;
64252;SDS011;50592;52.958;-7.470;2024-02-28T04:35:19;31.38;;;4.68;;
64252;SDS011;50592;52.958;-7.470;2024-02-28T04:37:45;26.88;;;7.22;;
64252;SDS011;50592;52.958;-7.470;2024-02-28T04:40:12;33.20;;;5.03;;
64252;SDS011;50592;52.958;-7.470;2024-02-28T04:42:38;30.05;;;5.40;;
64252;SDS011;50592;52.958;-7.470;2024-02-28T04:45:05;26.00;;;4.75;;
64252;SDS011;50592;52.958;-7.470;2024-02-28T04:47:31;33.35;;;5.88;;
64252;SDS011;50592;52.958;-7.470;2024-02-28T04:49:57;25.35;;;4.32;;
64252;SDS011;50592;52.958;-7.470;2024-02-28T04:52:23;29.85;;;3.88;;
64252;SDS011;50592;52.958;-7.470;2024-02-28T04:54:50;30.17;;;4.65;;
64252;SDS011;50592;52.958;-7.470;2024-02-28T04:57:17;31.13;;;5.03;;
64252;SDS011;50592;52.958;-7.470;2024-02-28T04:59:43;42.97;;;4.57;;
64252;SDS011;50592;52.958;-7.470;2024-02-28T05:02:10;34.10;;;5.75;;
64252;SDS011;50592;52.958;-7.470;2024-02-28T05:04:36;31.48;;;4.05;;
64252;SDS011;50592;52.958;-7.470;2024-02-28T05:07:01;29.67;;;4.93;;
64252;SDS011;50592;52.958;-7.470;2024-02-28T05:09:28;28.70;;;4.07;;
64252;SDS011;50592;52.958;-7.470;2024-02-28T05:11:53;34.17;;;6.68;;
64252;SDS011;50592;52.958;-7.470;2024-02-28T05:14:19;31.25;;;5.10;;
64252;SDS011;50592;52.958;-7.470;2024-02-28T05:16:48;27.42;;;4.38;;
64252;SDS011;50592;52.958;-7.470;2024-02-28T05:19:14;35.97;;;5.15;;
64252;SDS011;50592;52.958;-7.470;2024-02-28T05:21:43;37.65;;;5.65;;
64252;SDS011;50592;52.958;-7.470;2024-02-28T05:24:09;28.38;;;4.13;;
64252;SDS011;50592;52.958;-7.470;2024-02-28T05:26:35;26.27;;;4.53;;
64252;SDS011;50592;52.958;-7.470;2024-02-28T05:29:02;34.95;;;4.55;;
64252;SDS011;50592;52.958;-7.470;2024-02-28T05:31:29;20.80;;;3.65;;
64252;SDS011;50592;52.958;-7.470;2024-02-28T05:33:57;31.25;;;5.78;;
64252;SDS011;50592;52.958;-7.470;2024-02-28T05:36:24;30.20;;;5.18;;
64252;SDS011;50592;52.958;-7.470;2024-02-28T05:38:51;22.08;;;4.13;;
64252;SDS011;50592;52.958;-7.470;2024-02-28T05:41:17;39.38;;;5.72;;
64252;SDS011;50592;52.958;-7.470;2024-02-28T05:43:43;34.28;;;4.55;;
64252;SDS011;50592;52.958;-7.470;2024-02-28T05:46:09;30.55;;;6.85;;
64252;SDS011;50592;52.958;-7.470;2024-02-28T05:48:35;28.75;;;5.97;;
64252;SDS011;50592;52.958;-7.470;2024-02-28T05:51:01;21.27;;;4.00;;
64252;SDS011;50592;52.958;-7.470;2024-02-28T05:53:28;23.80;;;4.60;;
64252;SDS011;50592;52.958;-7.470;2024-02-28T05:55:58;28.23;;;6.05;;
64252;SDS011;50592;52.958;-7.470;2024-02-28T05:58:24;28.02;;;5.70;;
64252;SDS011;50592;52.958;-7.470;2024-02-28T06:00:51;31.80;;;4.97;;
64252;SDS011;50592;52.958;-7.470;2024-02-28T06:03:17;25.52;;;4.13;;
64252;SDS011;50592;52.958;-7.470;2024-02-28T06:05:43;31.13;;;4.40;;
64252;SDS011;50592;52.958;-7.470;2024-02-28T06:08:09;26.15;;;4.65;;
64252;SDS011;50592;52.958;-7.470;2024-02-28T06:10:35;39.20;;;5.35;;
64252;SDS011;50592;52.958;-7.470;2024-02-28T06:13:02;30.67;;;5.13;;
64252;SDS011;50592;52.958;-7.470;2024-02-28T06:15:28;32.17;;;4.72;;
64252;SDS011;50592;52.958;-7.470;2024-02-28T06:17:56;28.95;;;3.90;;
64252;SDS011;50592;52.958;-7.470;2024-02-28T06:20:22;25.75;;;4.32;;
64252;SDS011;50592;52.958;-7.470;2024-02-28T06:22:48;24.77;;;5.22;;
64252;SDS011;50592;52.958;-7.470;2024-02-28T06:25:14;22.88;;;3.78;;
64252;SDS011;50592;52.958;-7.470;2024-02-28T06:27:44;21.98;;;3.40;;
64252;SDS011;50592;52.958;-7.470;2024-02-28T06:30:11;25.85;;;4.40;;
64252;SDS011;50592;52.958;-7.470;2024-02-28T06:32:40;18.20;;;3.85;;
64252;SDS011;50592;52.958;-7.470;2024-02-28T06:35:06;21.35;;;4.38;;
64252;SDS011;50592;52.958;-7.470;2024-02-28T06:37:33;23.83;;;4.50;;
64252;SDS011;50592;52.958;-7.470;2024-02-28T06:39:59;25.90;;;3.53;;
64252;SDS011;50592;52.958;-7.470;2024-02-28T06:42:26;17.00;;;3.00;;
64252;SDS011;50592;52.958;-7.470;2024-02-28T06:44:51;21.08;;;3.70;;
64252;SDS011;50592;52.958;-7.470;2024-02-28T06:47:17;18.05;;;3.22;;
64252;SDS011;50592;52.958;-7.470;2024-02-28T06:50:02;14.25;;;2.83;;
64252;SDS011;50592;52.958;-7.470;2024-02-28T06:52:29;17.65;;;2.85;;
64252;SDS011;50592;52.958;-7.470;2024-02-28T06:54:55;22.00;;;3.42;;
64252;SDS011;50592;52.958;-7.470;2024-02-28T06:57:21;29.50;;;3.70;;
64252;SDS011;50592;52.958;-7.470;2024-02-28T06:59:47;18.27;;;3.30;;
64252;SDS011;50592;52.958;-7.470;2024-02-28T07:02:14;15.80;;;2.72;;
64252;SDS011;50592;52.958;-7.470;2024-02-28T07:04:43;12.10;;;3.08;;
64252;SDS011;50592;52.958;-7.470;2024-02-28T07:07:09;18.85;;;2.85;;
64252;SDS011;50592;52.958;-7.470;2024-02-28T07:09:37;15.50;;;3.10;;
64252;SDS011;50592;52.958;-7.470;2024-02-28T07:12:03;15.55;;;2.85;;
64252;SDS011;50592;52.958;-7.470;2024-02-28T07:17:17;9.75;;;4.28;;
64252;SDS011;50592;52.958;-7.470;2024-02-28T07:19:48;8.68;;;1.92;;
64252;SDS011;50592;52.958;-7.470;2024-02-28T07:25:21;6.85;;;0.90;;
64252;SDS011;50592;52.958;-7.470;2024-02-28T07:28:13;5.95;;;0.70;;
64252;SDS011;50592;52.958;-7.470;2024-02-28T07:31:56;11.95;;;4.07;;
64252;SDS011;50592;52.958;-7.470;2024-02-28T07:35:14;34.55;;;14.60;;
64252;SDS011;50592;52.958;-7.470;2024-02-28T07:39:03;22.27;;;12.27;;
64252;SDS011;50592;52.958;-7.470;2024-02-28T07:46:27;11.25;;;6.40;;
64252;SDS011;50592;52.958;-7.470;2024-02-28T07:50:14;4.63;;;1.60;;
64252;SDS011;50592;52.958;-7.470;2024-02-28T08:04:25;23.73;;;15.30;;
64252;SDS011;50592;52.958;-7.470;2024-02-28T08:07:26;42.03;;;27.73;;
64252;SDS011;50592;52.958;-7.470;2024-02-28T08:11:03;33.58;;;19.75;;
64252;SDS011;50592;52.958;-7.470;2024-02-28T08:13:41;29.00;;;17.08;;
64252;SDS011;50592;52.958;-7.470;2024-02-28T08:16:23;51.22;;;28.98;;
64252;SDS011;50592;52.958;-7.470;2024-02-28T08:19:19;29.67;;;17.83;;
64252;SDS011;50592;52.958;-7.470;2024-02-28T08:22:11;6.65;;;3.95;;
64252;SDS011;50592;52.958;-7.470;2024-02-28T08:28:05;11.23;;;6.53;;
64252;SDS011;50592;52.958;-7.470;2024-02-28T08:30:39;8.85;;;6.15;;
64252;SDS011;50592;52.958;-7.470;2024-02-28T08:33:46;2.53;;;1.63;;
64252;SDS011;50592;52.958;-7.470;2024-02-28T08:36:36;4.65;;;3.60;;
64252;SDS011;50592;52.958;-7.470;2024-02-28T08:39:07;3.20;;;2.33;;
64252;SDS011;50592;52.958;-7.470;2024-02-28T08:42:57;7.28;;;5.25;;
64252;SDS011;50592;52.958;-7.470;2024-02-28T08:45:39;3.72;;;2.17;;
64252;SDS011;50592;52.958;-7.470;2024-02-28T08:48:20;13.60;;;11.02;;
64252;SDS011;50592;52.958;-7.470;2024-02-28T08:51:47;13.40;;;9.02;;
64252;SDS011;50592;52.958;-7.470;2024-02-28T08:54:53;5.80;;;4.45;;
64252;SDS011;50592;52.958;-7.470;2024-02-28T09:05:39;9.07;;;6.80;;
64252;SDS011;50592;52.958;-7.470;2024-02-28T16:30:58;13.23;;;6.97;;
64252;SDS011;50592;52.958;-7.470;2024-02-28T16:33:29;23.30;;;16.25;;
64252;SDS011;50592;52.958;-7.470;2024-02-28T16:35:55;70.18;;;50.95;;
64252;SDS011;50592;52.958;-7.470;2024-02-28T16:38:22;54.95;;;42.40;;
64252;SDS011;50592;52.958;-7.470;2024-02-28T16:40:48;27.33;;;23.38;;
64252;SDS011;50592;52.958;-7.470;2024-02-28T16:43:14;23.35;;;18.17;;
64252;SDS011;50592;52.958;-7.470;2024-02-28T16:45:40;48.67;;;37.88;;
64252;SDS011;50592;52.958;-7.470;2024-02-28T16:48:06;31.98;;;24.33;;
64252;SDS011;50592;52.958;-7.470;2024-02-28T16:50:34;33.55;;;22.98;;
64252;SDS011;50592;52.958;-7.470;2024-02-28T16:53:00;14.30;;;11.88;;
64252;SDS011;50592;52.958;-7.470;2024-02-28T16:55:30;81.03;;;65.57;;
64252;SDS011;50592;52.958;-7.470;2024-02-28T16:57:56;40.95;;;30.13;;
64252;SDS011;50592;52.958;-7.470;2024-02-28T17:00:30;53.40;;;39.45;;
64252;SDS011;50592;52.958;-7.470;2024-02-28T17:02:57;32.78;;;22.85;;
64252;SDS011;50592;52.958;-7.470;2024-02-28T17:05:26;23.85;;;18.60;;
64252;SDS011;50592;52.958;-7.470;2024-02-28T17:07:53;34.15;;;24.88;;
64252;SDS011;50592;52.958;-7.470;2024-02-28T17:10:19;47.03;;;36.22;;
64252;SDS011;50592;52.958;-7.470;2024-02-28T17:12:44;28.83;;;23.55;;
64252;SDS011;50592;52.958;-7.470;2024-02-28T17:15:13;15.27;;;12.48;;
64252;SDS011;50592;52.958;-7.470;2024-02-28T17:17:39;15.02;;;12.88;;
64252;SDS011;50592;52.958;-7.470;2024-02-28T17:20:05;8.57;;;7.30;;
64252;SDS011;50592;52.958;-7.470;2024-02-28T17:22:32;24.63;;;21.85;;
64252;SDS011;50592;52.958;-7.470;2024-02-28T17:24:59;13.10;;;10.27;;
64252;SDS011;50592;52.958;-7.470;2024-02-28T17:27:27;10.15;;;8.63;;
64252;SDS011;50592;52.958;-7.470;2024-02-28T17:29:57;23.50;;;18.38;;
64252;SDS011;50592;52.958;-7.470;2024-02-28T17:32:23;19.88;;;13.23;;
64252;SDS011;50592;52.958;-7.470;2024-02-28T17:34:49;15.35;;;11.00;;
64252;SDS011;50592;52.958;-7.470;2024-02-28T17:37:17;17.77;;;13.27;;
64252;SDS011;50592;52.958;-7.470;2024-02-28T17:39:46;28.05;;;23.02;;
64252;SDS011;50592;52.958;-7.470;2024-02-28T17:42:12;19.75;;;12.10;;
64252;SDS011;50592;52.958;-7.470;2024-02-28T17:44:39;18.13;;;15.93;;
64252;SDS011;50592;52.958;-7.470;2024-02-28T17:47:05;11.43;;;10.20;;
64252;SDS011;50592;52.958;-7.470;2024-02-28T17:49:36;11.50;;;8.20;;
64252;SDS011;50592;52.958;-7.470;2024-02-28T17:52:11;28.80;;;25.30;;
64252;SDS011;50592;52.958;-7.470;2024-02-28T17:54:37;14.20;;;12.57;;
64252;SDS011;50592;52.958;-7.470;2024-02-28T17:57:03;14.98;;;12.18;;
64252;SDS011;50592;52.958;-7.470;2024-02-28T17:59:29;3.17;;;2.55;;
64252;SDS011;50592;52.958;-7.470;2024-02-28T18:01:57;1.58;;;1.10;;
64252;SDS011;50592;52.958;-7.470;2024-02-28T18:04:26;2.55;;;0.60;;
64252;SDS011;50592;52.958;-7.470;2024-02-28T18:06:52;1.25;;;0.30;;
64252;SDS011;50592;52.958;-7.470;2024-02-28T18:09:18;1.33;;;0.50;;
64252;SDS011;50592;52.958;-7.470;2024-02-28T18:11:47;0.52;;;0.30;;
64252;SDS011;50592;52.958;-7.470;2024-02-28T18:14:15;1.05;;;0.60;;
64252;SDS011;50592;52.958;-7.470;2024-02-28T18:16:49;1.75;;;0.30;;
64252;SDS011;50592;52.958;-7.470;2024-02-28T18:19:17;2.50;;;0.20;;
64252;SDS011;50592;52.958;-7.470;2024-02-28T18:21:44;2.00;;;0.55;;
64252;SDS011;50592;52.958;-7.470;2024-02-28T18:24:17;1.33;;;0.73;;
64252;SDS011;50592;52.958;-7.470;2024-02-28T18:26:46;0.70;;;0.60;;
64252;SDS011;50592;52.958;-7.470;2024-02-28T18:29:14;2.22;;;0.38;;
64252;SDS011;50592;52.958;-7.470;2024-02-28T18:32:00;5.97;;;0.57;;
64252;SDS011;50592;52.958;-7.470;2024-02-28T18:35:43;1.85;;;0.93;;
64252;SDS011;50592;52.958;-7.470;2024-02-28T18:38:22;2.08;;;0.68;;
64252;SDS011;50592;52.958;-7.470;2024-02-28T18:40:52;4.10;;;2.72;;
64252;SDS011;50592;52.958;-7.470;2024-02-28T18:43:25;2.10;;;0.70;;
64252;SDS011;50592;52.958;-7.470;2024-02-28T18:46:31;1.23;;;0.60;;
64252;SDS011;50592;52.958;-7.470;2024-02-28T18:49:01;5.20;;;2.03;;
64252;SDS011;50592;52.958;-7.470;2024-02-28T18:51:56;1.55;;;0.88;;
64252;SDS011;50592;52.958;-7.470;2024-02-28T19:00:20;10.20;;;6.90;;
64252;SDS011;50592;52.958;-7.470;2024-02-28T19:03:02;4.38;;;1.25;;
64252;SDS011;50592;52.958;-7.470;2024-02-28T19:05:35;3.53;;;2.30;;
64252;SDS011;50592;52.958;-7.470;2024-02-28T19:08:02;3.88;;;1.00;;
64252;SDS011;50592;52.958;-7.470;2024-02-28T19:13:33;4.28;;;1.48;;
64252;SDS011;50592;52.958;-7.470;2024-02-28T19:16:20;14.30;;;10.27;;
64252;SDS011;50592;52.958;-7.470;2024-02-28T19:21:55;5.65;;;3.38;;
64252;SDS011;50592;52.958;-7.470;2024-02-28T19:24:24;5.32;;;3.15;;
64252;SDS011;50592;52.958;-7.470;2024-02-28T19:26:55;3.22;;;1.83;;
64252;SDS011;50592;52.958;-7.470;2024-02-28T19:35:14;6.00;;;5.35;;
64252;SDS011;50592;52.958;-7.470;2024-02-28T19:37:57;10.52;;;7.18;;
64252;SDS011;50592;52.958;-7.470;2024-02-28T19:41:14;3.63;;;3.20;;
64252;SDS011;50592;52.958;-7.470;2024-02-28T19:47:17;14.30;;;8.25;;
64252;SDS011;50592;52.958;-7.470;2024-02-28T19:49:51;15.90;;;13.55;;
64252;SDS011;50592;52.958;-7.470;2024-02-28T19:52:22;35.15;;;31.40;;
64252;SDS011;50592;52.958;-7.470;2024-02-28T19:54:56;15.60;;;14.00;;
64252;SDS011;50592;52.958;-7.470;2024-02-28T19:57:28;13.48;;;12.10;;
64252;SDS011;50592;52.958;-7.470;2024-02-28T20:03:18;4.82;;;3.97;;
64252;SDS011;50592;52.958;-7.470;2024-02-28T20:06:32;3.75;;;3.30;;
64252;SDS011;50592;52.958;-7.470;2024-02-28T20:09:08;3.22;;;2.85;;
64252;SDS011;50592;52.958;-7.470;2024-02-28T20:11:40;2.88;;;1.75;;
64252;SDS011;50592;52.958;-7.470;2024-02-28T20:14:59;1.98;;;1.65;;
64252;SDS011;50592;52.958;-7.470;2024-02-28T20:17:31;2.25;;;2.10;;
64252;SDS011;50592;52.958;-7.470;2024-02-28T20:20:03;4.28;;;3.42;;
64252;SDS011;50592;52.958;-7.470;2024-02-28T20:22:43;2.20;;;1.98;;
64252;SDS011;50592;52.958;-7.470;2024-02-28T20:25:24;3.15;;;1.20;;
64252;SDS011;50592;52.958;-7.470;2024-02-28T20:27:53;15.10;;;8.13;;
64252;SDS011;50592;52.958;-7.470;2024-02-28T20:30:24;4.57;;;2.45;;
64252;SDS011;50592;52.958;-7.470;2024-02-28T20:32:56;6.90;;;3.28;;
64252;SDS011;50592;52.958;-7.470;2024-02-28T20:35:27;1.98;;;0.95;;
64252;SDS011;50592;52.958;-7.470;2024-02-28T20:37:58;7.38;;;2.95;;
64252;SDS011;50592;52.958;-7.470;2024-02-28T20:40:27;5.57;;;1.17;;
64252;SDS011;50592;52.958;-7.470;2024-02-28T20:43:21;2.17;;;0.68;;
64252;SDS011;50592;52.958;-7.470;2024-02-28T20:46:03;8.63;;;1.45;;
64252;SDS011;50592;52.958;-7.470;2024-02-28T20:48:32;7.50;;;1.00;;
64252;SDS011;50592;52.958;-7.470;2024-02-28T20:50:58;5.22;;;0.80;;
64252;SDS011;50592;52.958;-7.470;2024-02-28T20:53:30;6.30;;;0.98;;
64252;SDS011;50592;52.958;-7.470;2024-02-28T20:55:56;7.22;;;0.70;;
64252;SDS011;50592;52.958;-7.470;2024-02-28T20:58:32;6.18;;;1.38;;
64252;SDS011;50592;52.958;-7.470;2024-02-28T21:01:07;3.70;;;0.80;;
64252;SDS011;50592;52.958;-7.470;2024-02-28T21:03:35;12.85;;;1.83;;
64252;SDS011;50592;52.958;-7.470;2024-02-28T21:06:08;12.23;;;1.40;;
64252;SDS011;50592;52.958;-7.470;2024-02-28T21:08:42;5.15;;;1.02;;
64252;SDS011;50592;52.958;-7.470;2024-02-28T21:11:09;7.03;;;1.20;;
64252;SDS011;50592;52.958;-7.470;2024-02-28T21:13:35;8.70;;;1.85;;
64252;SDS011;50592;52.958;-7.470;2024-02-28T21:16:03;9.65;;;2.03;;
64252;SDS011;50592;52.958;-7.470;2024-02-28T21:18:33;8.70;;;1.30;;
64252;SDS011;50592;52.958;-7.470;2024-02-28T21:26:16;15.65;;;2.83;;
64252;SDS011;50592;52.958;-7.470;2024-02-28T21:31:47;13.93;;;2.83;;
64252;SDS011;50592;52.958;-7.470;2024-02-28T21:37:05;18.08;;;2.55;;
64252;SDS011;50592;52.958;-7.470;2024-02-28T21:42:34;31.05;;;3.00;;
64252;SDS011;50592;52.958;-7.470;2024-02-28T21:45:01;25.38;;;3.40;;
64252;SDS011;50592;52.958;-7.470;2024-02-28T21:47:27;24.27;;;3.40;;
64252;SDS011;50592;52.958;-7.470;2024-02-28T21:49:56;24.52;;;4.25;;
64252;SDS011;50592;52.958;-7.470;2024-02-28T21:52:24;19.95;;;3.33;;
64252;SDS011;50592;52.958;-7.470;2024-02-28T21:54:53;21.10;;;3.22;;
64252;SDS011;50592;52.958;-7.470;2024-02-28T21:58:09;20.05;;;3.38;;
64252;SDS011;50592;52.958;-7.470;2024-02-28T22:01:00;14.65;;;3.25;;
64252;SDS011;50592;52.958;-7.470;2024-02-28T22:03:47;30.50;;;4.13;;
64252;SDS011;50592;52.958;-7.470;2024-02-28T22:06:16;27.83;;;4.15;;
64252;SDS011;50592;52.958;-7.470;2024-02-28T22:08:44;29.45;;;3.78;;
64252;SDS011;50592;52.958;-7.470;2024-02-28T22:11:10;20.67;;;3.40;;
64252;SDS011;50592;52.958;-7.470;2024-02-28T22:13:40;13.98;;;4.03;;
64252;SDS011;50592;52.958;-7.470;2024-02-28T22:16:12;21.63;;;3.83;;
64252;SDS011;50592;52.958;-7.470;2024-02-28T22:18:38;21.92;;;3.67;;
64252;SDS011;50592;52.958;-7.470;2024-02-28T22:21:04;23.98;;;3.97;;
64252;SDS011;50592;52.958;-7.470;2024-02-28T22:23:32;24.85;;;4.20;;
64252;SDS011;50592;52.958;-7.470;2024-02-28T22:26:05;29.83;;;3.72;;
64252;SDS011;50592;52.958;-7.470;2024-02-28T22:28:31;26.65;;;4.63;;
64252;SDS011;50592;52.958;-7.470;2024-02-28T22:31:03;29.25;;;4.35;;
64252;SDS011;50592;52.958;-7.470;2024-02-28T22:33:29;32.65;;;5.57;;
64252;SDS011;50592;52.958;-7.470;2024-02-28T22:35:54;26.15;;;5.20;;
64252;SDS011;50592;52.958;-7.470;2024-02-28T22:38:20;26.73;;;5.57;;
64252;SDS011;50592;52.958;-7.470;2024-02-28T22:40:46;33.08;;;4.25;;
64252;SDS011;50592;52.958;-7.470;2024-02-28T22:43:11;26.95;;;4.32;;
64252;SDS011;50592;52.958;-7.470;2024-02-28T22:45:37;25.05;;;5.68;;
64252;SDS011;50592;52.958;-7.470;2024-02-28T22:48:05;29.30;;;4.13;;
64252;SDS011;50592;52.958;-7.470;2024-02-28T23:04:23;34.72;;;4.70;;
64252;SDS011;50592;52.958;-7.470;2024-02-28T23:07:54;25.95;;;5.22;;
64252;SDS011;50592;52.958;-7.470;2024-02-28T23:10:20;36.85;;;5.53;;
64252;SDS011;50592;52.958;-7.470;2024-02-28T23:17:09;32.38;;;4.85;;
64252;SDS011;50592;52.958;-7.470;2024-02-28T23:19:41;30.55;;;4.45;;
64252;SDS011;50592;52.958;-7.470;2024-02-28T23:22:07;31.00;;;4.35;;
64252;SDS011;50592;52.958;-7.470;2024-02-28T23:24:33;29.95;;;4.95;;
64252;SDS011;50592;52.958;-7.470;2024-02-28T23:30:35;27.85;;;4.88;;
64252;SDS011;50592;52.958;-7.470;2024-02-28T23:34:07;29.98;;;5.35;;
64252;SDS011;50592;52.958;-7.470;2024-02-28T23:36:37;31.88;;;5.35;;
64252;SDS011;50592;52.958;-7.470;2024-02-28T23:39:33;27.35;;;4.88;;
64252;SDS011;50592;52.958;-7.470;2024-02-28T23:42:52;23.23;;;2.92;;
64252;SDS011;50592;52.958;-7.470;2024-02-28T23:54:10;22.02;;;3.08;;
